sensor_id;sensor_type;location;lat;lon;timestamp;P1;durP1;ratioP1;P2;durP2;ratioP2
64387;SDS011;50709;52.648;4.764;2023-02-28T00:00:32;6.82;;;3.33;;
64387;SDS011;50709;52.648;4.764;2023-02-28T00:02:58;5.68;;;3.45;;
64387;SDS011;50709;52.648;4.764;2023-02-28T00:05:24;6.68;;;3.42;;
64387;SDS011;50709;52.648;4.764;2023-02-28T00:07:51;7.47;;;3.40;;
64387;SDS011;50709;52.648;4.764;2023-02-28T00:10:18;4.63;;;2.90;;
64387;SDS011;50709;52.648;4.764;2023-02-28T00:12:49;4.85;;;3.00;;
64387;SDS011;50709;52.648;4.764;2023-02-28T00:15:15;5.60;;;3.35;;
64387;SDS011;50709;52.648;4.764;2023-02-28T00:17:42;6.57;;;3.00;;
64387;SDS011;50709;52.648;4.764;2023-02-28T00:20:08;7.20;;;3.20;;
64387;SDS011;50709;52.648;4.764;2023-02-28T00:22:41;6.13;;;2.88;;
64387;SDS011;50709;52.648;4.764;2023-02-28T00:25:13;6.43;;;2.90;;
64387;SDS011;50709;52.648;4.764;2023-02-28T00:27:41;6.55;;;3.13;;
64387;SDS011;50709;52.648;4.764;2023-02-28T00:30:08;8.07;;;3.47;;
64387;SDS011;50709;52.648;4.764;2023-02-28T00:32:44;6.28;;;3.28;;
64387;SDS011;50709;52.648;4.764;2023-02-28T00:35:10;6.93;;;3.30;;
64387;SDS011;50709;52.648;4.764;2023-02-28T00:37:36;6.72;;;2.75;;
64387;SDS011;50709;52.648;4.764;2023-02-28T00:40:02;5.30;;;2.85;;
64387;SDS011;50709;52.648;4.764;2023-02-28T00:42:30;11.15;;;3.60;;
64387;SDS011;50709;52.648;4.764;2023-02-28T00:44:55;6.78;;;2.80;;
64387;SDS011;50709;52.648;4.764;2023-02-28T00:47:21;4.18;;;2.67;;
64387;SDS011;50709;52.648;4.764;2023-02-28T00:49:46;5.95;;;3.00;;
64387;SDS011;50709;52.648;4.764;2023-02-28T00:52:12;5.63;;;2.97;;
64387;SDS011;50709;52.648;4.764;2023-02-28T00:54:37;5.22;;;2.85;;
64387;SDS011;50709;52.648;4.764;2023-02-28T00:57:02;7.45;;;3.13;;
64387;SDS011;50709;52.648;4.764;2023-02-28T00:59:28;6.38;;;2.78;;
64387;SDS011;50709;52.648;4.764;2023-02-28T01:01:53;6.25;;;3.00;;
64387;SDS011;50709;52.648;4.764;2023-02-28T01:04:19;7.65;;;3.33;;
64387;SDS011;50709;52.648;4.764;2023-02-28T01:06:44;6.00;;;3.05;;
64387;SDS011;50709;52.648;4.764;2023-02-28T01:09:10;6.07;;;2.83;;
64387;SDS011;50709;52.648;4.764;2023-02-28T01:11:37;4.78;;;2.58;;
64387;SDS011;50709;52.648;4.764;2023-02-28T01:14:02;9.50;;;3.05;;
64387;SDS011;50709;52.648;4.764;2023-02-28T01:16:29;8.35;;;3.00;;
64387;SDS011;50709;52.648;4.764;2023-02-28T01:18:55;4.90;;;2.90;;
64387;SDS011;50709;52.648;4.764;2023-02-28T01:21:20;5.53;;;2.65;;
64387;SDS011;50709;52.648;4.764;2023-02-28T01:23:47;7.20;;;3.42;;
64387;SDS011;50709;52.648;4.764;2023-02-28T01:28:38;7.10;;;2.90;;
64387;SDS011;50709;52.648;4.764;2023-02-28T01:31:04;5.70;;;2.97;;
64387;SDS011;50709;52.648;4.764;2023-02-28T01:33:30;4.32;;;2.85;;
64387;SDS011;50709;52.648;4.764;2023-02-28T01:36:06;8.07;;;2.83;;
64387;SDS011;50709;52.648;4.764;2023-02-28T01:38:35;6.72;;;3.15;;
64387;SDS011;50709;52.648;4.764;2023-02-28T01:41:01;6.05;;;3.03;;
64387;SDS011;50709;52.648;4.764;2023-02-28T01:46:12;5.45;;;2.80;;
64387;SDS011;50709;52.648;4.764;2023-02-28T01:49:02;5.93;;;3.00;;
64387;SDS011;50709;52.648;4.764;2023-02-28T01:51:44;7.35;;;3.03;;
64387;SDS011;50709;52.648;4.764;2023-02-28T01:54:20;6.38;;;2.60;;
64387;SDS011;50709;52.648;4.764;2023-02-28T01:56:51;5.55;;;2.83;;
64387;SDS011;50709;52.648;4.764;2023-02-28T01:59:27;10.50;;;3.40;;
64387;SDS011;50709;52.648;4.764;2023-02-28T02:01:58;6.18;;;3.10;;
64387;SDS011;50709;52.648;4.764;2023-02-28T02:04:25;5.28;;;2.60;;
64387;SDS011;50709;52.648;4.764;2023-02-28T02:06:57;5.65;;;2.53;;
64387;SDS011;50709;52.648;4.764;2023-02-28T02:09:24;8.07;;;3.05;;
64387;SDS011;50709;52.648;4.764;2023-02-28T02:11:49;5.47;;;2.67;;
64387;SDS011;50709;52.648;4.764;2023-02-28T02:25:58;9.50;;;2.90;;
64387;SDS011;50709;52.648;4.764;2023-02-28T02:39:51;6.88;;;2.60;;
64387;SDS011;50709;52.648;4.764;2023-02-28T02:42:32;6.13;;;2.90;;
64387;SDS011;50709;52.648;4.764;2023-02-28T02:45:12;8.43;;;2.80;;
64387;SDS011;50709;52.648;4.764;2023-02-28T02:47:42;6.28;;;2.80;;
64387;SDS011;50709;52.648;4.764;2023-02-28T02:50:11;5.53;;;2.55;;
64387;SDS011;50709;52.648;4.764;2023-02-28T02:52:43;10.00;;;2.67;;
64387;SDS011;50709;52.648;4.764;2023-02-28T02:55:15;6.25;;;2.78;;
64387;SDS011;50709;52.648;4.764;2023-02-28T02:57:47;5.10;;;2.60;;
64387;SDS011;50709;52.648;4.764;2023-02-28T03:00:26;6.30;;;2.70;;
64387;SDS011;50709;52.648;4.764;2023-02-28T03:02:59;5.68;;;2.78;;
64387;SDS011;50709;52.648;4.764;2023-02-28T03:05:27;6.78;;;2.38;;
64387;SDS011;50709;52.648;4.764;2023-02-28T03:07:58;8.77;;;2.83;;
64387;SDS011;50709;52.648;4.764;2023-02-28T03:12:53;6.97;;;2.50;;
64387;SDS011;50709;52.648;4.764;2023-02-28T03:15:49;5.00;;;2.45;;
64387;SDS011;50709;52.648;4.764;2023-02-28T03:18:25;6.35;;;2.55;;
64387;SDS011;50709;52.648;4.764;2023-02-28T03:23:45;4.05;;;2.70;;
64387;SDS011;50709;52.648;4.764;2023-02-28T03:26:19;5.35;;;2.67;;
64387;SDS011;50709;52.648;4.764;2023-02-28T03:31:18;6.72;;;3.15;;
64387;SDS011;50709;52.648;4.764;2023-02-28T03:33:56;4.68;;;2.50;;
64387;SDS011;50709;52.648;4.764;2023-02-28T03:36:29;6.13;;;2.70;;
64387;SDS011;50709;52.648;4.764;2023-02-28T03:39:02;5.85;;;2.85;;
64387;SDS011;50709;52.648;4.764;2023-02-28T03:41:45;6.40;;;2.60;;
64387;SDS011;50709;52.648;4.764;2023-02-28T03:44:16;5.85;;;2.58;;
64387;SDS011;50709;52.648;4.764;2023-02-28T03:46:47;6.35;;;2.85;;
64387;SDS011;50709;52.648;4.764;2023-02-28T03:51:43;4.85;;;2.47;;
64387;SDS011;50709;52.648;4.764;2023-02-28T03:54:16;6.95;;;3.28;;
64387;SDS011;50709;52.648;4.764;2023-02-28T03:56:55;6.63;;;2.60;;
64387;SDS011;50709;52.648;4.764;2023-02-28T03:59:28;6.00;;;2.72;;
64387;SDS011;50709;52.648;4.764;2023-02-28T04:01:58;4.30;;;2.70;;
64387;SDS011;50709;52.648;4.764;2023-02-28T04:04:24;8.23;;;2.95;;
64387;SDS011;50709;52.648;4.764;2023-02-28T04:06:52;5.75;;;2.67;;
64387;SDS011;50709;52.648;4.764;2023-02-28T04:09:26;6.80;;;3.00;;
64387;SDS011;50709;52.648;4.764;2023-02-28T04:11:52;6.55;;;2.75;;
64387;SDS011;50709;52.648;4.764;2023-02-28T04:14:18;6.55;;;2.90;;
64387;SDS011;50709;52.648;4.764;2023-02-28T04:16:44;5.00;;;2.63;;
64387;SDS011;50709;52.648;4.764;2023-02-28T04:19:10;5.68;;;2.67;;
64387;SDS011;50709;52.648;4.764;2023-02-28T04:21:41;5.18;;;2.75;;
64387;SDS011;50709;52.648;4.764;2023-02-28T04:24:09;4.20;;;2.67;;
64387;SDS011;50709;52.648;4.764;2023-02-28T04:26:39;5.38;;;2.45;;
64387;SDS011;50709;52.648;4.764;2023-02-28T04:29:06;6.78;;;2.38;;
64387;SDS011;50709;52.648;4.764;2023-02-28T04:31:32;8.43;;;2.60;;
64387;SDS011;50709;52.648;4.764;2023-02-28T04:33:58;6.53;;;2.60;;
64387;SDS011;50709;52.648;4.764;2023-02-28T04:36:24;5.70;;;2.53;;
64387;SDS011;50709;52.648;4.764;2023-02-28T04:38:50;8.88;;;3.00;;
64387;SDS011;50709;52.648;4.764;2023-02-28T04:41:15;5.32;;;2.33;;
64387;SDS011;50709;52.648;4.764;2023-02-28T04:43:41;9.82;;;2.63;;
64387;SDS011;50709;52.648;4.764;2023-02-28T04:46:07;6.55;;;3.00;;
64387;SDS011;50709;52.648;4.764;2023-02-28T04:48:33;5.85;;;2.90;;
64387;SDS011;50709;52.648;4.764;2023-02-28T04:51:01;7.78;;;2.50;;
64387;SDS011;50709;52.648;4.764;2023-02-28T04:53:28;5.82;;;2.90;;
64387;SDS011;50709;52.648;4.764;2023-02-28T04:55:54;8.77;;;3.08;;
64387;SDS011;50709;52.648;4.764;2023-02-28T04:58:19;6.28;;;3.05;;
64387;SDS011;50709;52.648;4.764;2023-02-28T05:00:48;5.40;;;3.13;;
64387;SDS011;50709;52.648;4.764;2023-02-28T05:03:13;6.10;;;3.00;;
64387;SDS011;50709;52.648;4.764;2023-02-28T05:05:39;6.60;;;3.25;;
64387;SDS011;50709;52.648;4.764;2023-02-28T05:08:04;5.68;;;2.72;;
64387;SDS011;50709;52.648;4.764;2023-02-28T05:10:30;7.85;;;2.97;;
64387;SDS011;50709;52.648;4.764;2023-02-28T05:12:56;4.47;;;2.60;;
64387;SDS011;50709;52.648;4.764;2023-02-28T05:15:23;5.43;;;2.70;;
64387;SDS011;50709;52.648;4.764;2023-02-28T05:17:49;4.53;;;2.60;;
64387;SDS011;50709;52.648;4.764;2023-02-28T05:20:15;7.78;;;2.80;;
64387;SDS011;50709;52.648;4.764;2023-02-28T05:22:41;6.90;;;2.80;;
64387;SDS011;50709;52.648;4.764;2023-02-28T05:25:08;6.50;;;2.72;;
64387;SDS011;50709;52.648;4.764;2023-02-28T05:27:37;5.65;;;2.92;;
64387;SDS011;50709;52.648;4.764;2023-02-28T05:30:02;5.47;;;3.30;;
64387;SDS011;50709;52.648;4.764;2023-02-28T05:32:29;8.65;;;3.00;;
64387;SDS011;50709;52.648;4.764;2023-02-28T05:34:54;6.65;;;2.97;;
64387;SDS011;50709;52.648;4.764;2023-02-28T05:37:20;7.82;;;3.10;;
64387;SDS011;50709;52.648;4.764;2023-02-28T05:39:45;8.52;;;3.08;;
64387;SDS011;50709;52.648;4.764;2023-02-28T05:42:11;6.18;;;2.90;;
64387;SDS011;50709;52.648;4.764;2023-02-28T05:44:36;6.20;;;3.17;;
64387;SDS011;50709;52.648;4.764;2023-02-28T05:47:02;6.38;;;3.15;;
64387;SDS011;50709;52.648;4.764;2023-02-28T05:49:27;7.80;;;3.15;;
64387;SDS011;50709;52.648;4.764;2023-02-28T05:51:53;4.93;;;2.97;;
64387;SDS011;50709;52.648;4.764;2023-02-28T05:54:18;5.10;;;3.10;;
64387;SDS011;50709;52.648;4.764;2023-02-28T05:56:44;10.13;;;2.90;;
64387;SDS011;50709;52.648;4.764;2023-02-28T05:59:11;5.28;;;2.97;;
64387;SDS011;50709;52.648;4.764;2023-02-28T06:01:40;6.15;;;2.90;;
64387;SDS011;50709;52.648;4.764;2023-02-28T06:04:13;6.85;;;2.70;;
64387;SDS011;50709;52.648;4.764;2023-02-28T06:06:43;6.05;;;3.08;;
64387;SDS011;50709;52.648;4.764;2023-02-28T06:09:09;8.50;;;2.92;;
64387;SDS011;50709;52.648;4.764;2023-02-28T06:11:35;4.95;;;3.13;;
64387;SDS011;50709;52.648;4.764;2023-02-28T06:14:01;5.85;;;3.08;;
64387;SDS011;50709;52.648;4.764;2023-02-28T06:16:27;5.22;;;3.15;;
64387;SDS011;50709;52.648;4.764;2023-02-28T06:18:54;6.07;;;3.15;;
64387;SDS011;50709;52.648;4.764;2023-02-28T06:21:22;9.00;;;3.83;;
64387;SDS011;50709;52.648;4.764;2023-02-28T06:23:48;7.03;;;3.78;;
64387;SDS011;50709;52.648;4.764;2023-02-28T06:26:13;8.38;;;3.50;;
64387;SDS011;50709;52.648;4.764;2023-02-28T06:28:39;4.45;;;3.17;;
64387;SDS011;50709;52.648;4.764;2023-02-28T06:31:11;8.43;;;3.90;;
64387;SDS011;50709;52.648;4.764;2023-02-28T06:33:39;7.55;;;3.25;;
64387;SDS011;50709;52.648;4.764;2023-02-28T06:36:05;6.70;;;3.20;;
64387;SDS011;50709;52.648;4.764;2023-02-28T06:38:32;9.93;;;3.85;;
64387;SDS011;50709;52.648;4.764;2023-02-28T06:40:58;5.70;;;3.63;;
64387;SDS011;50709;52.648;4.764;2023-02-28T06:43:25;10.02;;;5.00;;
64387;SDS011;50709;52.648;4.764;2023-02-28T06:45:56;7.47;;;4.28;;
64387;SDS011;50709;52.648;4.764;2023-02-28T06:48:23;9.50;;;4.30;;
64387;SDS011;50709;52.648;4.764;2023-02-28T06:50:49;7.22;;;4.25;;
64387;SDS011;50709;52.648;4.764;2023-02-28T06:53:15;5.93;;;3.88;;
64387;SDS011;50709;52.648;4.764;2023-02-28T06:55:40;8.13;;;4.00;;
64387;SDS011;50709;52.648;4.764;2023-02-28T06:58:06;7.47;;;4.30;;
64387;SDS011;50709;52.648;4.764;2023-02-28T07:00:44;7.72;;;4.70;;
64387;SDS011;50709;52.648;4.764;2023-02-28T07:03:11;6.75;;;4.90;;
64387;SDS011;50709;52.648;4.764;2023-02-28T07:05:38;7.75;;;4.30;;
64387;SDS011;50709;52.648;4.764;2023-02-28T07:08:04;7.10;;;4.40;;
64387;SDS011;50709;52.648;4.764;2023-02-28T07:10:31;7.65;;;5.60;;
64387;SDS011;50709;52.648;4.764;2023-02-28T07:12:57;10.85;;;6.38;;
64387;SDS011;50709;52.648;4.764;2023-02-28T07:15:23;8.57;;;5.45;;
64387;SDS011;50709;52.648;4.764;2023-02-28T07:17:49;9.38;;;6.18;;
64387;SDS011;50709;52.648;4.764;2023-02-28T07:20:15;9.95;;;5.95;;
64387;SDS011;50709;52.648;4.764;2023-02-28T07:22:40;8.98;;;5.88;;
64387;SDS011;50709;52.648;4.764;2023-02-28T07:25:06;9.60;;;5.93;;
64387;SDS011;50709;52.648;4.764;2023-02-28T07:27:32;8.02;;;5.20;;
64387;SDS011;50709;52.648;4.764;2023-02-28T07:29:59;11.27;;;5.80;;
64387;SDS011;50709;52.648;4.764;2023-02-28T07:32:26;12.20;;;6.35;;
64387;SDS011;50709;52.648;4.764;2023-02-28T07:34:52;10.82;;;5.97;;
64387;SDS011;50709;52.648;4.764;2023-02-28T07:37:20;12.70;;;8.30;;
64387;SDS011;50709;52.648;4.764;2023-02-28T07:39:46;13.95;;;9.15;;
64387;SDS011;50709;52.648;4.764;2023-02-28T07:42:11;10.73;;;6.65;;
64387;SDS011;50709;52.648;4.764;2023-02-28T07:44:40;11.40;;;6.82;;
64387;SDS011;50709;52.648;4.764;2023-02-28T07:47:09;10.40;;;7.05;;
64387;SDS011;50709;52.648;4.764;2023-02-28T07:49:38;15.77;;;10.18;;
64387;SDS011;50709;52.648;4.764;2023-02-28T07:52:04;13.30;;;8.43;;
64387;SDS011;50709;52.648;4.764;2023-02-28T07:54:31;13.23;;;9.02;;
64387;SDS011;50709;52.648;4.764;2023-02-28T07:56:56;14.07;;;7.93;;
64387;SDS011;50709;52.648;4.764;2023-02-28T07:59:22;12.98;;;8.75;;
64387;SDS011;50709;52.648;4.764;2023-02-28T08:01:47;15.32;;;7.72;;
64387;SDS011;50709;52.648;4.764;2023-02-28T08:04:15;13.85;;;8.02;;
64387;SDS011;50709;52.648;4.764;2023-02-28T08:06:42;10.77;;;7.22;;
64387;SDS011;50709;52.648;4.764;2023-02-28T08:09:08;13.32;;;9.13;;
64387;SDS011;50709;52.648;4.764;2023-02-28T08:11:34;12.00;;;7.63;;
64387;SDS011;50709;52.648;4.764;2023-02-28T08:13:59;14.25;;;9.00;;
64387;SDS011;50709;52.648;4.764;2023-02-28T08:16:25;15.48;;;10.60;;
64387;SDS011;50709;52.648;4.764;2023-02-28T08:18:51;13.25;;;8.80;;
64387;SDS011;50709;52.648;4.764;2023-02-28T08:21:17;12.10;;;8.38;;
64387;SDS011;50709;52.648;4.764;2023-02-28T08:23:43;12.00;;;8.55;;
64387;SDS011;50709;52.648;4.764;2023-02-28T08:26:09;12.15;;;7.88;;
64387;SDS011;50709;52.648;4.764;2023-02-28T08:28:34;18.02;;;10.60;;
64387;SDS011;50709;52.648;4.764;2023-02-28T08:30:59;12.82;;;8.23;;
64387;SDS011;50709;52.648;4.764;2023-02-28T08:33:25;11.75;;;7.32;;
64387;SDS011;50709;52.648;4.764;2023-02-28T08:35:52;9.63;;;7.00;;
64387;SDS011;50709;52.648;4.764;2023-02-28T08:38:19;11.65;;;7.70;;
64387;SDS011;50709;52.648;4.764;2023-02-28T08:40:44;11.43;;;7.22;;
64387;SDS011;50709;52.648;4.764;2023-02-28T08:43:10;8.25;;;6.30;;
64387;SDS011;50709;52.648;4.764;2023-02-28T08:45:35;10.13;;;6.78;;
64387;SDS011;50709;52.648;4.764;2023-02-28T08:48:01;14.00;;;9.40;;
64387;SDS011;50709;52.648;4.764;2023-02-28T08:50:26;11.35;;;7.82;;
64387;SDS011;50709;52.648;4.764;2023-02-28T08:52:51;9.95;;;6.93;;
64387;SDS011;50709;52.648;4.764;2023-02-28T08:55:17;9.95;;;7.50;;
64387;SDS011;50709;52.648;4.764;2023-02-28T08:57:42;11.10;;;6.57;;
64387;SDS011;50709;52.648;4.764;2023-02-28T09:00:08;9.35;;;6.88;;
64387;SDS011;50709;52.648;4.764;2023-02-28T09:02:35;8.32;;;5.88;;
64387;SDS011;50709;52.648;4.764;2023-02-28T09:05:00;11.73;;;7.22;;
64387;SDS011;50709;52.648;4.764;2023-02-28T09:07:26;11.30;;;7.70;;
64387;SDS011;50709;52.648;4.764;2023-02-28T09:09:51;10.65;;;7.65;;
64387;SDS011;50709;52.648;4.764;2023-02-28T09:12:20;9.00;;;6.68;;
64387;SDS011;50709;52.648;4.764;2023-02-28T09:14:46;11.98;;;8.05;;
64387;SDS011;50709;52.648;4.764;2023-02-28T09:17:12;13.85;;;8.18;;
64387;SDS011;50709;52.648;4.764;2023-02-28T09:19:38;9.70;;;6.82;;
64387;SDS011;50709;52.648;4.764;2023-02-28T09:22:03;10.82;;;6.75;;
64387;SDS011;50709;52.648;4.764;2023-02-28T09:24:28;8.90;;;6.57;;
64387;SDS011;50709;52.648;4.764;2023-02-28T09:26:56;8.65;;;6.05;;
64387;SDS011;50709;52.648;4.764;2023-02-28T09:29:22;8.75;;;5.82;;
64387;SDS011;50709;52.648;4.764;2023-02-28T09:31:47;7.72;;;5.80;;
64387;SDS011;50709;52.648;4.764;2023-02-28T09:34:13;10.07;;;7.60;;
64387;SDS011;50709;52.648;4.764;2023-02-28T09:36:38;9.45;;;6.55;;
64387;SDS011;50709;52.648;4.764;2023-02-28T09:39:03;8.80;;;6.57;;
64387;SDS011;50709;52.648;4.764;2023-02-28T09:41:31;10.65;;;7.28;;
64387;SDS011;50709;52.648;4.764;2023-02-28T09:44:13;10.48;;;7.18;;
64387;SDS011;50709;52.648;4.764;2023-02-28T09:46:47;14.07;;;9.70;;
64387;SDS011;50709;52.648;4.764;2023-02-28T09:49:18;10.85;;;7.60;;
64387;SDS011;50709;52.648;4.764;2023-02-28T09:51:50;11.02;;;7.30;;
64387;SDS011;50709;52.648;4.764;2023-02-28T09:54:23;7.90;;;5.55;;
64387;SDS011;50709;52.648;4.764;2023-02-28T09:59:51;11.05;;;7.70;;
64387;SDS011;50709;52.648;4.764;2023-02-28T10:05:24;7.78;;;5.53;;
64387;SDS011;50709;52.648;4.764;2023-02-28T10:08:14;10.65;;;6.68;;
64387;SDS011;50709;52.648;4.764;2023-02-28T10:16:16;9.07;;;5.50;;
64387;SDS011;50709;52.648;4.764;2023-02-28T10:18:47;9.52;;;5.60;;
64387;SDS011;50709;52.648;4.764;2023-02-28T10:21:17;7.97;;;5.43;;
64387;SDS011;50709;52.648;4.764;2023-02-28T10:23:48;9.88;;;5.35;;
64387;SDS011;50709;52.648;4.764;2023-02-28T10:26:14;9.98;;;6.00;;
64387;SDS011;50709;52.648;4.764;2023-02-28T10:28:42;7.72;;;5.20;;
64387;SDS011;50709;52.648;4.764;2023-02-28T10:31:10;13.90;;;8.18;;
64387;SDS011;50709;52.648;4.764;2023-02-28T10:33:42;10.75;;;5.43;;
64387;SDS011;50709;52.648;4.764;2023-02-28T10:36:08;8.50;;;5.95;;
64387;SDS011;50709;52.648;4.764;2023-02-28T10:38:44;17.80;;;9.27;;
64387;SDS011;50709;52.648;4.764;2023-02-28T10:41:15;12.20;;;6.43;;
64387;SDS011;50709;52.648;4.764;2023-02-28T10:43:52;10.02;;;5.53;;
64387;SDS011;50709;52.648;4.764;2023-02-28T10:46:18;10.60;;;5.25;;
64387;SDS011;50709;52.648;4.764;2023-02-28T10:49:00;8.55;;;5.22;;
64387;SDS011;50709;52.648;4.764;2023-02-28T10:51:46;7.07;;;4.60;;
64387;SDS011;50709;52.648;4.764;2023-02-28T10:54:22;7.68;;;4.93;;
64387;SDS011;50709;52.648;4.764;2023-02-28T10:57:15;8.50;;;4.70;;
64387;SDS011;50709;52.648;4.764;2023-02-28T10:59:49;7.05;;;4.45;;
64387;SDS011;50709;52.648;4.764;2023-02-28T11:02:30;9.13;;;4.43;;
64387;SDS011;50709;52.648;4.764;2023-02-28T11:05:00;7.40;;;4.20;;
64387;SDS011;50709;52.648;4.764;2023-02-28T11:07:26;7.55;;;4.80;;
64387;SDS011;50709;52.648;4.764;2023-02-28T11:09:54;6.65;;;3.45;;
64387;SDS011;50709;52.648;4.764;2023-02-28T11:15:18;7.65;;;4.60;;
64387;SDS011;50709;52.648;4.764;2023-02-28T11:20:51;6.50;;;4.20;;
64387;SDS011;50709;52.648;4.764;2023-02-28T11:23:19;6.53;;;3.72;;
64387;SDS011;50709;52.648;4.764;2023-02-28T11:25:49;5.82;;;3.50;;
64387;SDS011;50709;52.648;4.764;2023-02-28T11:28:31;7.60;;;4.30;;
64387;SDS011;50709;52.648;4.764;2023-02-28T11:33:51;7.88;;;4.05;;
64387;SDS011;50709;52.648;4.764;2023-02-28T11:38:51;8.20;;;4.65;;
64387;SDS011;50709;52.648;4.764;2023-02-28T11:50:20;6.80;;;4.10;;
64387;SDS011;50709;52.648;4.764;2023-02-28T11:55:35;7.63;;;4.50;;
64387;SDS011;50709;52.648;4.764;2023-02-28T12:01:17;7.50;;;4.40;;
64387;SDS011;50709;52.648;4.764;2023-02-28T12:11:55;7.60;;;4.30;;
64387;SDS011;50709;52.648;4.764;2023-02-28T12:22:39;5.68;;;3.70;;
64387;SDS011;50709;52.648;4.764;2023-02-28T12:27:55;8.05;;;3.88;;
64387;SDS011;50709;52.648;4.764;2023-02-28T12:30:27;5.43;;;3.83;;
64387;SDS011;50709;52.648;4.764;2023-02-28T12:32:56;5.82;;;3.55;;
64387;SDS011;50709;52.648;4.764;2023-02-28T12:35:33;5.15;;;3.70;;
64387;SDS011;50709;52.648;4.764;2023-02-28T12:38:08;6.65;;;3.42;;
64387;SDS011;50709;52.648;4.764;2023-02-28T12:40:47;5.95;;;3.50;;
64387;SDS011;50709;52.648;4.764;2023-02-28T12:43:19;4.88;;;3.08;;
64387;SDS011;50709;52.648;4.764;2023-02-28T12:45:46;5.40;;;3.30;;
64387;SDS011;50709;52.648;4.764;2023-02-28T12:48:27;6.85;;;3.40;;
64387;SDS011;50709;52.648;4.764;2023-02-28T12:51:02;6.50;;;3.20;;
64387;SDS011;50709;52.648;4.764;2023-02-28T12:53:36;5.45;;;2.95;;
64387;SDS011;50709;52.648;4.764;2023-02-28T13:04:05;5.60;;;3.25;;
64387;SDS011;50709;52.648;4.764;2023-02-28T13:09:26;6.38;;;3.38;;
64387;SDS011;50709;52.648;4.764;2023-02-28T13:11:54;6.65;;;3.97;;
64387;SDS011;50709;52.648;4.764;2023-02-28T13:14:28;5.40;;;3.67;;
64387;SDS011;50709;52.648;4.764;2023-02-28T13:17:09;5.53;;;3.47;;
64387;SDS011;50709;52.648;4.764;2023-02-28T13:22:18;6.20;;;3.50;;
64387;SDS011;50709;52.648;4.764;2023-02-28T13:27:47;7.95;;;3.50;;
64387;SDS011;50709;52.648;4.764;2023-02-28T13:33:21;6.55;;;3.50;;
64387;SDS011;50709;52.648;4.764;2023-02-28T13:38:42;4.90;;;3.47;;
64387;SDS011;50709;52.648;4.764;2023-02-28T13:51:48;4.15;;;2.90;;
64387;SDS011;50709;52.648;4.764;2023-02-28T13:59:57;5.25;;;3.33;;
64387;SDS011;50709;52.648;4.764;2023-02-28T14:05:15;5.38;;;3.28;;
64387;SDS011;50709;52.648;4.764;2023-02-28T14:07:47;5.78;;;3.47;;
64387;SDS011;50709;52.648;4.764;2023-02-28T14:10:26;5.40;;;3.40;;
64387;SDS011;50709;52.648;4.764;2023-02-28T14:13:13;7.13;;;3.60;;
64387;SDS011;50709;52.648;4.764;2023-02-28T14:21:16;7.32;;;3.97;;
64387;SDS011;50709;52.648;4.764;2023-02-28T14:37:14;7.20;;;3.60;;
64387;SDS011;50709;52.648;4.764;2023-02-28T14:39:44;5.13;;;2.90;;
64387;SDS011;50709;52.648;4.764;2023-02-28T14:44:55;4.22;;;3.00;;
64387;SDS011;50709;52.648;4.764;2023-02-28T14:47:25;4.82;;;3.08;;
64387;SDS011;50709;52.648;4.764;2023-02-28T14:50:02;7.07;;;3.22;;
64387;SDS011;50709;52.648;4.764;2023-02-28T14:52:30;4.97;;;3.42;;
64387;SDS011;50709;52.648;4.764;2023-02-28T14:54:58;4.45;;;3.28;;
64387;SDS011;50709;52.648;4.764;2023-02-28T14:57:31;6.38;;;3.20;;
64387;SDS011;50709;52.648;4.764;2023-02-28T15:00:15;4.68;;;3.30;;
64387;SDS011;50709;52.648;4.764;2023-02-28T15:02:48;4.38;;;3.13;;
64387;SDS011;50709;52.648;4.764;2023-02-28T15:07:45;6.18;;;3.35;;
64387;SDS011;50709;52.648;4.764;2023-02-28T15:10:17;5.85;;;3.53;;
64387;SDS011;50709;52.648;4.764;2023-02-28T15:15:51;5.00;;;3.30;;
64387;SDS011;50709;52.648;4.764;2023-02-28T15:18:22;4.85;;;3.45;;
64387;SDS011;50709;52.648;4.764;2023-02-28T15:20:53;7.88;;;3.65;;
64387;SDS011;50709;52.648;4.764;2023-02-28T15:23:20;5.47;;;3.97;;
64387;SDS011;50709;52.648;4.764;2023-02-28T15:25:47;4.25;;;3.65;;
64387;SDS011;50709;52.648;4.764;2023-02-28T15:28:17;5.80;;;3.65;;
64387;SDS011;50709;52.648;4.764;2023-02-28T15:30:52;10.15;;;4.07;;
64387;SDS011;50709;52.648;4.764;2023-02-28T15:33:26;4.57;;;3.25;;
64387;SDS011;50709;52.648;4.764;2023-02-28T15:36:13;5.13;;;3.75;;
64387;SDS011;50709;52.648;4.764;2023-02-28T15:38:40;6.43;;;3.72;;
64387;SDS011;50709;52.648;4.764;2023-02-28T15:41:20;4.60;;;3.70;;
64387;SDS011;50709;52.648;4.764;2023-02-28T15:43:48;4.75;;;3.70;;
64387;SDS011;50709;52.648;4.764;2023-02-28T15:46:13;6.63;;;3.80;;
64387;SDS011;50709;52.648;4.764;2023-02-28T15:48:44;5.05;;;3.92;;
64387;SDS011;50709;52.648;4.764;2023-02-28T15:51:20;5.18;;;3.88;;
64387;SDS011;50709;52.648;4.764;2023-02-28T15:53:50;6.78;;;3.88;;
64387;SDS011;50709;52.648;4.764;2023-02-28T15:58:56;5.80;;;3.42;;
64387;SDS011;50709;52.648;4.764;2023-02-28T16:03:51;6.45;;;3.45;;
64387;SDS011;50709;52.648;4.764;2023-02-28T16:08:44;4.95;;;3.50;;
64387;SDS011;50709;52.648;4.764;2023-02-28T16:11:10;5.82;;;3.95;;
64387;SDS011;50709;52.648;4.764;2023-02-28T16:13:35;5.85;;;3.67;;
64387;SDS011;50709;52.648;4.764;2023-02-28T16:16:02;6.25;;;3.78;;
64387;SDS011;50709;52.648;4.764;2023-02-28T16:18:28;5.40;;;3.70;;
64387;SDS011;50709;52.648;4.764;2023-02-28T16:20:53;5.60;;;3.95;;
64387;SDS011;50709;52.648;4.764;2023-02-28T16:23:18;6.85;;;3.80;;
64387;SDS011;50709;52.648;4.764;2023-02-28T16:25:44;5.25;;;3.63;;
64387;SDS011;50709;52.648;4.764;2023-02-28T16:30:57;5.40;;;3.90;;
64387;SDS011;50709;52.648;4.764;2023-02-28T16:33:24;6.07;;;3.88;;
64387;SDS011;50709;52.648;4.764;2023-02-28T16:35:50;6.72;;;4.07;;
64387;SDS011;50709;52.648;4.764;2023-02-28T16:38:15;7.15;;;4.60;;
64387;SDS011;50709;52.648;4.764;2023-02-28T16:40:41;8.32;;;4.30;;
64387;SDS011;50709;52.648;4.764;2023-02-28T16:43:13;8.82;;;4.70;;
64387;SDS011;50709;52.648;4.764;2023-02-28T16:45:42;6.65;;;4.75;;
64387;SDS011;50709;52.648;4.764;2023-02-28T16:48:10;8.07;;;4.50;;
64387;SDS011;50709;52.648;4.764;2023-02-28T16:50:38;6.78;;;5.10;;
64387;SDS011;50709;52.648;4.764;2023-02-28T16:53:04;6.13;;;4.55;;
64387;SDS011;50709;52.648;4.764;2023-02-28T16:55:29;7.50;;;5.70;;
64387;SDS011;50709;52.648;4.764;2023-02-28T16:57:56;7.85;;;5.05;;
64387;SDS011;50709;52.648;4.764;2023-02-28T17:00:23;8.52;;;5.55;;
64387;SDS011;50709;52.648;4.764;2023-02-28T17:02:50;6.93;;;5.47;;
64387;SDS011;50709;52.648;4.764;2023-02-28T17:05:16;8.82;;;5.85;;
64387;SDS011;50709;52.648;4.764;2023-02-28T17:07:43;8.13;;;5.40;;
64387;SDS011;50709;52.648;4.764;2023-02-28T17:10:22;8.20;;;6.03;;
64387;SDS011;50709;52.648;4.764;2023-02-28T17:12:49;9.77;;;5.88;;
64387;SDS011;50709;52.648;4.764;2023-02-28T17:15:16;8.85;;;6.03;;
64387;SDS011;50709;52.648;4.764;2023-02-28T17:17:43;11.40;;;6.03;;
64387;SDS011;50709;52.648;4.764;2023-02-28T17:20:13;7.82;;;5.43;;
64387;SDS011;50709;52.648;4.764;2023-02-28T17:22:40;9.35;;;5.65;;
64387;SDS011;50709;52.648;4.764;2023-02-28T17:25:07;7.90;;;6.07;;
64387;SDS011;50709;52.648;4.764;2023-02-28T17:27:33;8.15;;;5.70;;
64387;SDS011;50709;52.648;4.764;2023-02-28T17:29:59;7.93;;;5.50;;
64387;SDS011;50709;52.648;4.764;2023-02-28T17:32:25;9.07;;;6.00;;
64387;SDS011;50709;52.648;4.764;2023-02-28T17:34:52;7.20;;;5.32;;
64387;SDS011;50709;52.648;4.764;2023-02-28T17:37:18;10.65;;;6.05;;
64387;SDS011;50709;52.648;4.764;2023-02-28T17:39:43;8.73;;;5.82;;
64387;SDS011;50709;52.648;4.764;2023-02-28T17:42:09;10.82;;;6.93;;
64387;SDS011;50709;52.648;4.764;2023-02-28T17:44:35;8.68;;;6.45;;
64387;SDS011;50709;52.648;4.764;2023-02-28T17:47:03;9.23;;;6.72;;
64387;SDS011;50709;52.648;4.764;2023-02-28T17:49:29;9.43;;;6.35;;